Time;durP1;ratioP1;P1;durP2;ratioP2;P2;SDS_P1;SDS_P2;PMS_P1;PMS_P2;Temp;Humidity;BMP_temperature;BMP_pressure;BME280_temperature;BME280_humidity;BME280_pressure;Samples;Min_cycle;Max_cycle;Signal;HPM_P1;HPM_P2
2021/01/21 00:01:20;;;;;;;2.67;1.43;;;6.00;99.90;;;;;;4990101;28;20249;-71
2021/01/21 00:03:46;;;;;;;1.60;1.50;;;5.90;99.90;;;;;;4990009;28;20704;-71
2021/01/21 00:06:13;;;;;;;1.33;1.23;;;6.00;99.90;;;;;;4990152;28;20727;-71
2021/01/21 00:08:40;;;;;;;1.87;1.40;;;6.00;99.90;;;;;;4990482;28;20264;-71
2021/01/21 00:11:06;;;;;;;2.10;1.70;;;6.00;99.90;;;;;;4990149;28;20242;-71
2021/01/21 00:13:34;;;;;;;1.40;1.30;;;6.00;99.90;;;;;;4989961;28;20206;-71
2021/01/21 00:16:00;;;;;;;2.13;1.50;;;5.90;99.90;;;;;;4990191;28;20326;-71
2021/01/21 00:18:27;;;;;;;1.53;1.30;;;5.90;99.90;;;;;;4989964;28;20293;-72
2021/01/21 00:20:54;;;;;;;1.43;1.33;;;5.90;99.90;;;;;;4990016;28;20708;-72
2021/01/21 00:23:20;;;;;;;1.40;1.30;;;5.80;99.90;;;;;;4990078;28;20634;-72
2021/01/21 00:25:50;;;;;;;1.40;1.30;;;5.80;99.90;;;;;;4990106;28;20691;-73
2021/01/21 00:28:17;;;;;;;1.30;1.20;;;5.80;99.90;;;;;;4989924;28;20316;-72
2021/01/21 00:30:43;;;;;;;2.50;1.70;;;5.80;99.90;;;;;;4990180;28;20234;-72
2021/01/21 00:33:10;;;;;;;1.60;1.50;;;5.80;99.90;;;;;;4990251;28;20214;-72
2021/01/21 00:35:37;;;;;;;1.97;1.40;;;5.80;99.90;;;;;;4989753;28;20245;-72
2021/01/21 00:38:04;;;;;;;1.33;1.23;;;5.80;99.90;;;;;;4990139;28;20267;-72
2021/01/21 00:40:30;;;;;;;1.40;1.30;;;5.80;99.90;;;;;;4990106;28;20217;-71
2021/01/21 00:42:57;;;;;;;1.33;1.23;;;5.80;99.90;;;;;;4989708;28;20340;-73
2021/01/21 00:45:23;;;;;;;1.40;1.37;;;5.80;99.90;;;;;;4989558;28;20238;-71
2021/01/21 00:47:50;;;;;;;1.77;1.67;;;5.80;99.90;;;;;;4989578;28;20748;-71
2021/01/21 00:50:16;;;;;;;1.53;1.40;;;5.80;99.90;;;;;;4989876;28;20247;-71
2021/01/21 00:52:44;;;;;;;1.20;1.10;;;5.80;99.90;;;;;;4989776;28;20216;-71
2021/01/21 00:55:11;;;;;;;1.40;1.30;;;5.80;99.90;;;;;;4989491;28;20329;-71
2021/01/21 00:57:38;;;;;;;1.60;1.50;;;5.80;99.90;;;;;;4989586;28;20213;-71
2021/01/21 01:00:08;;;;;;;1.90;1.40;;;5.80;99.90;;;;;;4989209;28;20264;-72
2021/01/21 01:02:34;;;;;;;1.83;1.30;;;5.80;99.90;;;;;;4988572;28;20268;-71
2021/01/21 01:05:01;;;;;;;1.40;1.30;;;5.80;99.90;;;;;;4989126;28;20266;-71
2021/01/21 01:07:27;;;;;;;2.27;1.30;;;5.90;99.90;;;;;;4989310;28;20261;-72
2021/01/21 01:09:54;;;;;;;1.47;1.37;;;5.80;99.90;;;;;;4989217;28;20202;-71
2021/01/21 01:12:21;;;;;;;1.10;1.10;;;5.90;99.90;;;;;;4988932;28;20669;-71
2021/01/21 01:14:47;;;;;;;1.67;1.30;;;5.90;99.90;;;;;;4989202;28;20323;-69
2021/01/21 01:17:13;;;;;;;1.87;1.30;;;5.90;99.90;;;;;;4989089;28;20260;-70
2021/01/21 01:19:40;;;;;;;1.67;1.13;;;5.90;99.90;;;;;;4988867;28;20750;-71
2021/01/21 01:22:06;;;;;;;2.10;1.50;;;5.90;99.90;;;;;;4988855;28;20238;-70
2021/01/21 01:24:32;;;;;;;1.27;1.17;;;5.90;99.90;;;;;;4988945;28;20328;-70
2021/01/21 01:27:00;;;;;;;1.37;1.27;;;5.90;99.90;;;;;;4989255;28;20228;-71
2021/01/21 01:29:27;;;;;;;1.97;1.30;;;5.80;99.90;;;;;;4989146;28;20712;-72
2021/01/21 01:31:53;;;;;;;2.17;1.37;;;5.80;99.90;;;;;;4989137;28;20292;-73
2021/01/21 01:34:19;;;;;;;1.00;1.00;;;5.80;99.90;;;;;;4988944;28;20297;-71
2021/01/21 01:36:46;;;;;;;1.40;1.30;;;5.80;99.90;;;;;;4988609;28;20210;-71
2021/01/21 01:39:12;;;;;;;1.30;1.20;;;5.80;99.90;;;;;;4988747;28;20695;-71
2021/01/21 01:41:38;;;;;;;1.33;1.30;;;5.80;99.90;;;;;;4988415;28;20352;-71
2021/01/21 01:44:06;;;;;;;1.43;1.33;;;5.80;99.90;;;;;;4988420;28;20249;-71
2021/01/21 01:46:32;;;;;;;1.37;1.27;;;5.80;99.90;;;;;;4988454;28;20202;-71
2021/01/21 01:49:00;;;;;;;1.27;1.17;;;5.80;99.90;;;;;;4988883;28;20301;-72
2021/01/21 01:51:27;;;;;;;1.20;1.10;;;5.80;99.90;;;;;;4988335;28;20214;-72
2021/01/21 01:53:53;;;;;;;1.63;1.20;;;5.80;99.90;;;;;;4988591;28;20206;-72
2021/01/21 01:56:20;;;;;;;1.80;1.20;;;5.80;99.90;;;;;;4988612;28;20260;-72
2021/01/21 01:58:46;;;;;;;1.40;1.30;;;5.90;99.90;;;;;;4988283;28;20209;-72
2021/01/21 02:01:16;;;;;;;1.40;1.30;;;5.90;99.90;;;;;;4988776;28;20224;-72
2021/01/21 02:03:42;;;;;;;1.23;1.13;;;5.90;99.90;;;;;;4988420;28;20774;-71
2021/01/21 02:06:09;;;;;;;0.77;0.77;;;5.90;99.90;;;;;;4988713;28;20216;-71
2021/01/21 02:08:36;;;;;;;1.03;1.03;;;5.90;99.90;;;;;;4988637;28;20267;-71
2021/01/21 02:11:08;;;;;;;0.90;0.90;;;5.90;99.90;;;;;;4988752;28;20202;-71
2021/01/21 02:13:46;;;;;;;1.20;1.20;;;5.90;99.90;;;;;;4988622;28;20203;-72
2021/01/21 02:16:30;;;;;;;1.33;1.23;;;6.00;99.90;;;;;;4992139;28;20194;-72
2021/01/21 02:19:28;;;;;;;1.60;1.00;;;6.00;99.90;;;;;;4992310;28;20632;-73
2021/01/21 02:22:21;;;;;;;1.50;1.40;;;6.00;99.90;;;;;;4969387;28;20390;-73
2021/01/21 02:25:08;;;;;;;1.30;1.00;;;6.10;99.90;;;;;;4991940;28;20225;-71
2021/01/21 02:28:00;;;;;;;1.00;0.90;;;6.10;99.90;;;;;;4991939;28;20205;-72
2021/01/21 02:30:40;;;;;;;0.97;0.97;;;6.00;99.90;;;;;;4974541;28;20707;-72
2021/01/21 02:33:20;;;;;;;0.90;0.90;;;6.10;99.90;;;;;;4992066;28;20233;-72
2021/01/21 02:35:51;;;;;;;1.20;1.10;;;6.20;99.90;;;;;;4991595;28;20190;-72
2021/01/21 02:38:19;;;;;;;1.10;1.00;;;6.20;99.90;;;;;;4991733;28;20695;-72
2021/01/21 02:40:48;;;;;;;1.20;1.10;;;6.30;99.90;;;;;;4991574;28;20221;-72
2021/01/21 02:43:14;;;;;;;2.10;0.87;;;6.30;99.90;;;;;;4991482;28;20556;-72
2021/01/21 02:45:41;;;;;;;0.80;0.80;;;6.30;99.90;;;;;;4991217;28;20596;-72
2021/01/21 02:48:08;;;;;;;1.30;1.20;;;6.40;99.90;;;;;;4991942;28;20226;-72
2021/01/21 02:50:35;;;;;;;1.30;1.20;;;6.40;99.90;;;;;;4991448;28;20210;-72
2021/01/21 02:53:03;;;;;;;1.10;1.10;;;6.40;99.90;;;;;;4991594;28;20605;-72
2021/01/21 02:55:36;;;;;;;1.53;1.10;;;6.40;99.90;;;;;;4991742;28;20210;-72
2021/01/21 02:58:07;;;;;;;0.90;0.90;;;6.50;99.90;;;;;;4991523;28;20571;-72
2021/01/21 03:00:36;;;;;;;0.87;0.87;;;6.50;99.90;;;;;;4991448;28;20195;-72
2021/01/21 03:03:08;;;;;;;1.23;1.10;;;6.50;99.90;;;;;;4991676;28;20214;-72
2021/01/21 03:05:35;;;;;;;1.03;0.93;;;6.60;99.90;;;;;;4991429;28;20226;-72
2021/01/21 03:08:03;;;;;;;1.20;1.10;;;6.60;99.90;;;;;;4991493;28;20280;-72
2021/01/21 03:10:29;;;;;;;1.30;0.80;;;6.50;99.90;;;;;;4991330;28;20212;-71
2021/01/21 03:12:57;;;;;;;0.93;0.93;;;6.50;99.90;;;;;;4991470;28;20672;-72
2021/01/21 03:15:24;;;;;;;1.43;0.87;;;6.60;99.90;;;;;;4991643;28;20206;-71
2021/01/21 03:17:50;;;;;;;1.00;1.00;;;6.60;99.90;;;;;;4991549;28;20257;-71
2021/01/21 03:20:17;;;;;;;1.20;1.10;;;6.50;99.90;;;;;;4991218;28;20758;-72
2021/01/21 03:22:44;;;;;;;2.00;1.00;;;6.50;99.90;;;;;;4991473;28;20213;-72
2021/01/21 03:25:13;;;;;;;1.63;0.90;;;6.60;99.90;;;;;;4990927;28;20230;-71
2021/01/21 03:27:39;;;;;;;0.97;0.97;;;6.50;99.90;;;;;;4990648;28;20210;-72
2021/01/21 03:30:07;;;;;;;1.70;0.87;;;6.50;99.90;;;;;;4991239;28;20619;-72
2021/01/21 03:32:34;;;;;;;1.13;1.00;;;6.50;99.90;;;;;;4991032;28;20206;-72
2021/01/21 03:35:00;;;;;;;0.90;0.90;;;6.50;99.90;;;;;;4991325;28;20209;-72
2021/01/21 03:37:27;;;;;;;1.97;1.17;;;6.50;99.90;;;;;;4991185;28;20213;-72
2021/01/21 03:39:53;;;;;;;1.03;0.70;;;6.50;99.90;;;;;;4991003;28;20212;-72
2021/01/21 03:42:20;;;;;;;0.93;0.93;;;6.60;99.90;;;;;;4990863;28;20295;-72
2021/01/21 03:44:46;;;;;;;1.13;1.00;;;6.60;99.90;;;;;;4990422;28;20565;-71
2021/01/21 03:47:13;;;;;;;1.33;1.23;;;6.70;99.90;;;;;;4990794;28;20739;-71
2021/01/21 03:49:39;;;;;;;0.80;0.80;;;6.70;99.90;;;;;;4990664;28;20218;-72
2021/01/21 03:52:05;;;;;;;1.03;0.80;;;6.70;99.90;;;;;;4991086;28;20246;-71
2021/01/21 03:54:32;;;;;;;0.73;0.73;;;6.70;99.90;;;;;;4990541;28;20221;-71
2021/01/21 03:56:58;;;;;;;1.00;1.00;;;6.70;99.90;;;;;;4990437;28;20666;-72
2021/01/21 03:59:25;;;;;;;0.90;0.90;;;6.70;99.90;;;;;;4990623;28;20210;-71
2021/01/21 04:01:52;;;;;;;1.00;1.00;;;6.70;99.90;;;;;;4990551;28;20267;-72
2021/01/21 04:04:18;;;;;;;1.30;1.10;;;6.70;99.90;;;;;;4990388;28;20229;-71
2021/01/21 04:06:44;;;;;;;1.00;1.00;;;6.70;99.90;;;;;;4990269;28;20297;-71
2021/01/21 04:09:11;;;;;;;0.97;0.97;;;6.70;99.90;;;;;;5000761;28;20288;-71
2021/01/21 04:11:37;;;;;;;0.93;0.93;;;6.70;99.90;;;;;;4999153;28;20195;-71
2021/01/21 04:14:03;;;;;;;0.93;0.93;;;6.70;99.90;;;;;;5005596;28;20216;-71
2021/01/21 04:16:31;;;;;;;0.80;0.80;;;6.70;99.90;;;;;;4992722;28;20639;-72
2021/01/21 04:18:57;;;;;;;0.70;0.70;;;6.70;99.90;;;;;;5003773;28;20320;-71
2021/01/21 04:21:23;;;;;;;0.83;0.83;;;6.70;99.90;;;;;;5006827;28;20233;-71
2021/01/21 04:23:52;;;;;;;1.03;0.87;;;6.70;99.90;;;;;;5006646;28;20233;-71
2021/01/21 04:26:18;;;;;;;0.90;0.90;;;6.60;99.90;;;;;;5006770;28;20733;-72
2021/01/21 04:28:45;;;;;;;0.90;0.90;;;6.70;99.90;;;;;;5006161;28;20214;-72
2021/01/21 04:31:11;;;;;;;1.10;1.10;;;6.70;99.90;;;;;;5006580;28;20216;-72
2021/01/21 04:33:38;;;;;;;1.57;1.47;;;6.60;99.90;;;;;;4998520;28;20804;-72
2021/01/21 04:36:06;;;;;;;2.83;2.73;;;6.70;99.90;;;;;;4997235;28;21280;-72
2021/01/21 04:38:33;;;;;;;0.77;0.77;;;6.70;99.90;;;;;;4995206;28;20202;-71
2021/01/21 04:41:00;;;;;;;0.83;0.80;;;6.70;99.90;;;;;;4992232;28;20585;-71
2021/01/21 04:43:26;;;;;;;1.90;0.90;;;6.70;99.90;;;;;;4991700;28;20232;-71
2021/01/21 04:45:52;;;;;;;0.73;0.73;;;6.70;99.90;;;;;;5006211;28;20205;-71
2021/01/21 04:48:20;;;;;;;0.87;0.87;;;6.70;99.90;;;;;;5006246;28;20209;-71
2021/01/21 04:50:48;;;;;;;1.13;0.90;;;6.70;99.90;;;;;;5006529;28;20213;-72
2021/01/21 04:53:17;;;;;;;2.10;1.20;;;6.70;99.90;;;;;;5006837;28;20206;-72
2021/01/21 04:55:46;;;;;;;0.80;0.60;;;6.60;99.90;;;;;;5006235;28;20209;-72
2021/01/21 04:58:16;;;;;;;0.90;0.90;;;6.60;99.90;;;;;;5006463;28;20205;-72
2021/01/21 05:00:44;;;;;;;0.80;0.80;;;6.70;99.90;;;;;;4995419;28;20206;-72
2021/01/21 05:03:12;;;;;;;0.80;0.80;;;6.70;99.90;;;;;;4989053;28;20210;-71
2021/01/21 05:05:39;;;;;;;1.13;0.80;;;6.70;99.90;;;;;;5016113;28;20679;-71
2021/01/21 05:08:08;;;;;;;1.60;1.20;;;6.70;99.90;;;;;;5001512;28;20256;-71
2021/01/21 05:10:34;;;;;;;0.77;0.77;;;6.70;99.90;;;;;;4997122;28;20195;-71
2021/01/21 05:13:01;;;;;;;1.40;1.00;;;6.70;99.90;;;;;;4999850;28;20198;-72
2021/01/21 05:15:27;;;;;;;1.07;0.90;;;6.80;99.90;;;;;;4998132;28;20550;-71
2021/01/21 05:17:54;;;;;;;0.93;0.93;;;6.80;99.90;;;;;;4997008;28;20210;-71
2021/01/21 05:20:23;;;;;;;1.13;1.00;;;6.80;99.90;;;;;;4998567;28;20221;-71
2021/01/21 05:22:49;;;;;;;0.80;0.80;;;6.80;99.90;;;;;;4996959;28;20221;-71
2021/01/21 05:25:18;;;;;;;1.50;0.93;;;6.80;99.90;;;;;;4999235;28;20238;-71
2021/01/21 05:27:45;;;;;;;0.80;0.80;;;6.80;99.90;;;;;;4998403;28;20949;-71
2021/01/21 05:30:15;;;;;;;1.30;1.00;;;6.80;99.90;;;;;;4996565;28;20206;-71
2021/01/21 05:32:41;;;;;;;0.70;0.70;;;6.80;99.90;;;;;;4998828;28;20203;-71
2021/01/21 05:35:14;;;;;;;1.83;0.83;;;6.80;99.90;;;;;;4995010;28;20220;-71
2021/01/21 05:37:41;;;;;;;0.80;0.80;;;6.80;99.90;;;;;;5000256;28;20747;-71
2021/01/21 05:40:08;;;;;;;0.80;0.80;;;6.80;99.90;;;;;;4993493;28;20209;-71
2021/01/21 05:42:37;;;;;;;0.93;0.93;;;6.70;99.90;;;;;;4996947;28;20208;-71
2021/01/21 05:45:05;;;;;;;1.20;1.17;;;6.80;99.90;;;;;;4997992;28;20244;-71
2021/01/21 05:47:32;;;;;;;1.50;1.00;;;6.80;99.90;;;;;;4999266;28;20198;-71
2021/01/21 05:50:00;;;;;;;1.37;1.27;;;6.80;99.90;;;;;;4993564;28;20652;-71
2021/01/21 05:52:27;;;;;;;1.30;0.97;;;6.80;99.90;;;;;;5001011;28;20206;-71
2021/01/21 05:54:55;;;;;;;1.37;1.07;;;6.90;99.90;;;;;;4995368;28;20197;-71
2021/01/21 05:57:23;;;;;;;1.10;1.10;;;6.80;99.90;;;;;;4995501;28;20901;-71
2021/01/21 05:59:50;;;;;;;1.30;1.20;;;6.90;99.90;;;;;;4998280;28;20567;-71
2021/01/21 06:02:19;;;;;;;1.80;1.10;;;6.80;99.90;;;;;;5000923;28;21009;-71
2021/01/21 06:04:48;;;;;;;1.10;1.10;;;6.90;99.90;;;;;;4995195;28;20716;-70
2021/01/21 06:07:21;;;;;;;1.00;1.00;;;7.00;99.90;;;;;;4994571;28;20212;-70
2021/01/21 06:09:47;;;;;;;1.00;1.00;;;7.00;99.90;;;;;;5004525;28;20202;-70
2021/01/21 06:12:15;;;;;;;1.47;1.07;;;7.00;99.90;;;;;;4996080;28;20289;-70
2021/01/21 06:14:41;;;;;;;1.00;1.00;;;7.00;99.90;;;;;;4999136;28;20296;-70
2021/01/21 06:17:09;;;;;;;1.00;1.00;;;7.00;99.90;;;;;;4999141;28;20205;-70
2021/01/21 06:19:35;;;;;;;1.20;1.10;;;7.10;99.90;;;;;;4996063;28;20208;-70
2021/01/21 06:22:07;;;;;;;1.10;1.07;;;7.10;99.90;;;;;;4995695;28;20209;-70
2021/01/21 06:24:42;;;;;;;1.83;1.23;;;7.10;99.90;;;;;;4999520;28;20309;-70
2021/01/21 06:27:09;;;;;;;1.50;1.40;;;7.00;99.90;;;;;;4999531;28;20633;-70
2021/01/21 06:29:37;;;;;;;1.87;1.10;;;7.10;99.90;;;;;;4992398;28;20297;-70
2021/01/21 06:32:08;;;;;;;1.30;1.20;;;7.10;99.90;;;;;;4992652;28;20202;-70
2021/01/21 06:34:39;;;;;;;1.33;1.23;;;7.00;99.90;;;;;;4998228;28;20197;-70
2021/01/21 06:37:12;;;;;;;1.00;0.90;;;7.00;99.90;;;;;;4997752;28;20202;-70
2021/01/21 06:39:47;;;;;;;1.63;1.53;;;7.00;99.90;;;;;;4996329;28;20204;-70
2021/01/21 06:42:18;;;;;;;1.30;1.20;;;7.00;99.90;;;;;;4992254;28;20598;-70
2021/01/21 06:44:45;;;;;;;0.90;0.90;;;7.00;99.90;;;;;;4995221;28;20245;-70
2021/01/21 06:47:12;;;;;;;1.30;1.20;;;7.00;99.90;;;;;;4997559;28;20243;-70
2021/01/21 06:49:40;;;;;;;1.30;1.20;;;7.10;99.90;;;;;;4996730;28;20228;-70
2021/01/21 06:52:09;;;;;;;2.57;2.47;;;7.20;99.90;;;;;;4995995;28;20302;-71
2021/01/21 06:54:41;;;;;;;1.83;1.73;;;7.20;99.90;;;;;;4997095;28;20202;-71
2021/01/21 06:57:41;;;;;;;1.00;1.00;;;7.20;99.90;;;;;;4993559;28;20193;-70
2021/01/21 07:00:09;;;;;;;1.10;1.00;;;7.20;99.90;;;;;;4997170;28;20209;-70
2021/01/21 07:02:43;;;;;;;2.70;1.10;;;7.20;99.90;;;;;;5008999;28;20673;-70
2021/01/21 07:05:12;;;;;;;1.70;0.97;;;7.20;99.90;;;;;;5010276;28;20602;-70
2021/01/21 07:08:00;;;;;;;1.17;1.07;;;7.20;99.90;;;;;;4995366;28;20237;-70
2021/01/21 07:10:29;;;;;;;1.17;1.07;;;7.30;99.90;;;;;;4993254;28;20240;-70
2021/01/21 07:12:58;;;;;;;1.00;0.90;;;7.30;99.90;;;;;;4995463;28;20206;-70
2021/01/21 07:15:35;;;;;;;0.90;0.90;;;7.40;99.90;;;;;;5003463;28;20210;-70
2021/01/21 07:18:05;;;;;;;1.70;1.23;;;7.40;99.90;;;;;;4998415;28;20228;-70
2021/01/21 07:20:34;;;;;;;1.03;0.80;;;7.60;99.90;;;;;;5001027;28;20221;-70
2021/01/21 07:23:05;;;;;;;1.00;1.00;;;7.50;99.90;;;;;;4999869;28;20222;-70
2021/01/21 07:25:33;;;;;;;0.97;0.90;;;7.60;99.90;;;;;;5004036;28;20235;-70
2021/01/21 07:28:08;;;;;;;1.13;0.90;;;7.60;99.90;;;;;;5001255;28;20247;-71
2021/01/21 07:30:38;;;;;;;1.10;1.10;;;7.50;99.90;;;;;;4997103;28;20190;-71
2021/01/21 07:33:21;;;;;;;1.20;1.20;;;7.60;99.90;;;;;;4999342;28;20201;-70
2021/01/21 07:35:50;;;;;;;1.27;1.20;;;7.60;99.90;;;;;;4997876;28;20201;-70
2021/01/21 07:38:49;;;;;;;1.40;1.30;;;7.60;99.90;;;;;;4998826;28;20562;-70
2021/01/21 07:41:55;;;;;;;1.77;1.10;;;7.60;99.90;;;;;;5000706;28;20233;-70
2021/01/21 07:44:21;;;;;;;0.87;0.87;;;7.50;99.90;;;;;;4999200;28;20233;-69
2021/01/21 07:46:48;;;;;;;1.10;1.00;;;7.60;99.90;;;;;;4997492;28;20228;-70
2021/01/21 07:49:28;;;;;;;1.00;0.90;;;7.60;99.90;;;;;;4998762;28;20284;-69
2021/01/21 07:52:03;;;;;;;1.60;1.30;;;7.60;99.90;;;;;;4997646;28;20262;-70
2021/01/21 07:54:31;;;;;;;1.07;1.07;;;7.60;99.90;;;;;;5003863;28;20209;-70
2021/01/21 07:56:57;;;;;;;2.43;1.20;;;7.70;99.90;;;;;;4998471;28;20576;-70
2021/01/21 07:59:24;;;;;;;1.10;0.97;;;7.70;99.90;;;;;;4997646;28;20194;-70
2021/01/21 08:01:57;;;;;;;1.20;1.10;;;7.60;99.90;;;;;;4998247;28;20203;-70
2021/01/21 08:04:23;;;;;;;1.23;1.13;;;7.60;99.90;;;;;;4998135;28;20233;-70
2021/01/21 08:06:54;;;;;;;1.57;1.47;;;7.60;99.90;;;;;;4997926;28;20206;-70
2021/01/21 08:09:21;;;;;;;1.47;1.10;;;7.60;99.90;;;;;;4998861;28;20194;-70
2021/01/21 08:11:49;;;;;;;1.43;1.10;;;7.50;99.90;;;;;;5005298;28;20206;-70
2021/01/21 08:14:16;;;;;;;1.07;1.07;;;7.60;99.90;;;;;;5009112;28;20213;-70
2021/01/21 08:16:44;;;;;;;2.07;1.30;;;7.60;99.90;;;;;;5009125;28;20212;-70
2021/01/21 08:19:10;;;;;;;1.23;1.13;;;7.60;99.90;;;;;;5008842;28;20687;-70
2021/01/21 08:21:37;;;;;;;1.50;1.40;;;7.60;99.90;;;;;;5008961;28;20229;-70
2021/01/21 08:24:06;;;;;;;2.27;2.10;;;7.70;99.90;;;;;;4998360;28;20228;-70
2021/01/21 08:26:34;;;;;;;4.03;3.63;;;7.80;99.90;;;;;;4999497;28;20729;-71
2021/01/21 08:29:01;;;;;;;1.10;1.10;;;7.90;99.90;;;;;;4998160;28;20756;-70
2021/01/21 08:31:37;;;;;;;1.30;1.20;;;8.00;99.90;;;;;;4999439;28;20688;-70
2021/01/21 08:34:05;;;;;;;1.30;1.07;;;8.10;99.90;;;;;;4998779;28;20198;-70
2021/01/21 08:36:32;;;;;;;1.20;1.10;;;8.20;99.90;;;;;;4997983;28;20867;-71
2021/01/21 08:38:58;;;;;;;0.70;0.70;;;8.30;99.90;;;;;;4998887;28;20728;-70
2021/01/21 08:41:25;;;;;;;1.23;1.20;;;8.40;99.90;;;;;;4999840;28;20292;-70
2021/01/21 08:43:59;;;;;;;1.90;1.00;;;8.50;99.90;;;;;;4999081;28;20255;-71
2021/01/21 08:46:26;;;;;;;1.10;1.00;;;8.40;99.90;;;;;;5000935;28;20613;-70
2021/01/21 08:48:53;;;;;;;1.03;1.03;;;8.50;99.90;;;;;;4997631;28;20614;-71
2021/01/21 08:51:34;;;;;;;1.33;1.23;;;8.50;99.90;;;;;;4997278;28;20288;-71
2021/01/21 08:54:14;;;;;;;0.87;0.87;;;8.50;99.90;;;;;;4998127;28;20197;-70
2021/01/21 08:56:41;;;;;;;1.00;1.00;;;8.50;99.90;;;;;;4998498;28;20281;-71
2021/01/21 08:59:28;;;;;;;1.10;1.00;;;8.50;99.90;;;;;;4996866;28;20201;-71
2021/01/21 09:01:55;;;;;;;0.97;0.97;;;8.50;99.90;;;;;;4997434;28;20202;-70
2021/01/21 09:04:23;;;;;;;0.93;0.93;;;8.50;99.90;;;;;;4994946;28;20222;-70
2021/01/21 09:06:51;;;;;;;1.40;1.00;;;8.60;99.90;;;;;;4998947;28;20240;-70
2021/01/21 09:09:26;;;;;;;1.20;1.20;;;8.70;99.90;;;;;;4998898;28;20202;-70
2021/01/21 09:11:52;;;;;;;3.63;1.10;;;8.80;99.90;;;;;;4991085;28;20619;-71
2021/01/21 09:14:19;;;;;;;1.20;1.20;;;8.90;99.90;;;;;;4989008;28;20320;-71
2021/01/21 09:16:48;;;;;;;4.27;3.97;;;8.90;99.90;;;;;;5000729;28;20205;-73
2021/01/21 09:19:30;;;;;;;4.23;3.93;;;8.90;99.90;;;;;;4996468;28;20220;-72
2021/01/21 09:21:57;;;;;;;1.60;1.20;;;8.80;99.90;;;;;;5000528;28;20217;-71
2021/01/21 09:24:24;;;;;;;1.17;1.17;;;8.80;99.90;;;;;;4997065;28;20303;-71
2021/01/21 09:27:12;;;;;;;3.97;1.30;;;8.80;99.90;;;;;;4999213;28;20637;-71
2021/01/21 09:29:56;;;;;;;2.07;1.20;;;8.80;99.90;;;;;;4992841;28;20280;-71
2021/01/21 09:32:25;;;;;;;1.20;1.10;;;8.90;99.90;;;;;;5002681;28;20617;-71
2021/01/21 09:34:54;;;;;;;1.70;1.00;;;9.00;99.90;;;;;;4991755;28;20268;-71
2021/01/21 09:37:20;;;;;;;2.00;0.83;;;9.10;99.90;;;;;;4993848;28;20277;-71
2021/01/21 09:39:47;;;;;;;1.27;1.20;;;9.20;99.90;;;;;;5001988;28;20345;-71
2021/01/21 09:42:14;;;;;;;1.03;1.00;;;9.10;99.90;;;;;;4996350;28;20762;-71
2021/01/21 09:44:40;;;;;;;1.07;1.00;;;9.20;99.90;;;;;;4998953;28;20230;-71
2021/01/21 09:47:07;;;;;;;3.30;0.93;;;9.40;99.90;;;;;;5001936;28;20209;-71
2021/01/21 09:49:34;;;;;;;1.20;0.97;;;9.50;99.90;;;;;;5002965;28;20231;-71
2021/01/21 09:52:00;;;;;;;0.90;0.90;;;9.60;99.90;;;;;;4987937;28;20209;-71
2021/01/21 09:54:27;;;;;;;1.23;1.00;;;9.80;99.90;;;;;;4996157;28;20275;-71
2021/01/21 09:56:54;;;;;;;1.40;1.30;;;10.00;99.90;;;;;;4995066;28;20237;-71
2021/01/21 09:59:21;;;;;;;0.97;0.93;;;10.10;99.90;;;;;;4992772;28;20201;-71
2021/01/21 10:01:48;;;;;;;1.37;1.27;;;10.30;99.90;;;;;;4995309;28;20206;-71
2021/01/21 10:04:14;;;;;;;1.73;1.17;;;10.40;99.90;;;;;;4995388;28;20222;-71
2021/01/21 10:06:41;;;;;;;0.70;0.70;;;10.50;99.90;;;;;;4998432;28;20197;-71
2021/01/21 10:09:08;;;;;;;1.10;1.00;;;10.50;99.90;;;;;;5001600;28;20630;-71
2021/01/21 10:11:34;;;;;;;1.30;0.93;;;10.60;99.90;;;;;;4993554;28;20281;-71
2021/01/21 10:14:01;;;;;;;0.70;0.70;;;10.80;99.90;;;;;;4999293;28;20210;-71
2021/01/21 10:16:28;;;;;;;1.03;1.00;;;11.10;99.90;;;;;;5001051;28;20202;-71
2021/01/21 10:18:56;;;;;;;1.20;1.10;;;11.40;99.90;;;;;;4998875;28;20210;-71
2021/01/21 10:21:23;;;;;;;2.47;0.97;;;11.50;99.90;;;;;;4998835;28;20317;-71
2021/01/21 10:23:50;;;;;;;0.77;0.77;;;11.70;99.90;;;;;;5000881;28;20290;-71
2021/01/21 10:26:16;;;;;;;1.43;0.70;;;11.70;99.90;;;;;;4996747;28;20329;-71
2021/01/21 10:28:43;;;;;;;2.00;1.87;;;11.80;99.90;;;;;;4995483;28;20205;-71
2021/01/21 10:31:09;;;;;;;1.77;1.60;;;11.90;99.90;;;;;;4997662;28;20209;-71
2021/01/21 10:33:36;;;;;;;1.63;0.70;;;11.90;99.90;;;;;;4993423;28;20230;-71
2021/01/21 10:36:03;;;;;;;0.60;0.60;;;12.00;99.90;;;;;;5000308;28;20558;-71
2021/01/21 10:38:29;;;;;;;2.33;0.93;;;12.00;99.90;;;;;;4998457;28;20260;-71
2021/01/21 10:40:57;;;;;;;5.77;1.10;;;12.20;99.90;;;;;;4991240;28;20285;-71
2021/01/21 10:43:23;;;;;;;0.80;0.80;;;12.20;99.90;;;;;;4990760;28;20656;-72
2021/01/21 10:45:49;;;;;;;1.10;1.00;;;12.30;99.90;;;;;;4990508;28;20241;-71
2021/01/21 10:48:16;;;;;;;1.37;0.70;;;12.30;99.90;;;;;;4990832;28;20305;-71
2021/01/21 10:50:42;;;;;;;0.77;0.77;;;12.30;99.90;;;;;;4990102;28;20657;-71
2021/01/21 10:53:09;;;;;;;1.00;1.00;;;12.50;99.90;;;;;;4991231;28;20214;-71
2021/01/21 10:55:35;;;;;;;0.90;0.90;;;12.60;99.90;;;;;;4990699;28;20212;-71
2021/01/21 10:58:06;;;;;;;1.27;1.20;;;12.60;99.90;;;;;;4990550;28;20206;-71
2021/01/21 11:00:32;;;;;;;1.30;0.90;;;12.70;99.90;;;;;;4990737;28;20576;-71
2021/01/21 11:02:59;;;;;;;2.10;0.87;;;12.80;99.90;;;;;;4990966;28;20628;-71
2021/01/21 11:05:26;;;;;;;1.00;1.00;;;12.90;99.50;;;;;;4994826;28;20253;-71
2021/01/21 11:07:52;;;;;;;1.00;1.00;;;13.00;99.80;;;;;;5006943;28;20268;-71
2021/01/21 11:10:19;;;;;;;0.90;0.90;;;13.00;99.50;;;;;;4996876;28;20289;-71
2021/01/21 11:12:47;;;;;;;0.80;0.80;;;13.00;99.70;;;;;;5005418;28;20209;-78
2021/01/21 11:15:15;;;;;;;0.97;0.87;;;13.00;99.90;;;;;;5002057;28;20203;-71
2021/01/21 11:17:42;;;;;;;1.73;0.80;;;12.90;99.90;;;;;;4990284;28;20699;-71
2021/01/21 11:20:09;;;;;;;2.70;1.10;;;12.80;99.90;;;;;;4990379;28;20226;-71
2021/01/21 11:22:37;;;;;;;0.97;0.97;;;12.70;99.80;;;;;;4989989;28;20216;-71
2021/01/21 11:25:05;;;;;;;1.07;0.97;;;12.60;99.90;;;;;;4990454;28;20237;-71
2021/01/21 11:27:32;;;;;;;0.97;0.83;;;12.50;99.90;;;;;;4998477;28;20209;-71
2021/01/21 11:29:58;;;;;;;0.70;0.70;;;12.50;99.90;;;;;;4999550;28;20285;-71
2021/01/21 11:32:25;;;;;;;0.70;0.70;;;12.50;99.90;;;;;;4996494;28;20195;-71
2021/01/21 11:34:51;;;;;;;1.27;1.20;;;12.40;99.90;;;;;;5000551;28;20232;-71
2021/01/21 11:37:18;;;;;;;1.70;1.20;;;12.50;99.90;;;;;;5000477;28;20202;-71
2021/01/21 11:39:44;;;;;;;1.43;0.73;;;12.50;99.90;;;;;;5001561;28;20207;-71
2021/01/21 11:42:10;;;;;;;0.97;0.70;;;12.50;99.90;;;;;;4998344;28;20205;-71
2021/01/21 11:44:37;;;;;;;0.77;0.70;;;12.50;99.90;;;;;;5000305;28;20349;-71
2021/01/21 11:47:03;;;;;;;1.17;0.53;;;12.50;99.90;;;;;;4998979;28;20206;-71
2021/01/21 11:49:30;;;;;;;1.37;0.63;;;12.50;99.90;;;;;;5007032;28;20209;-71
2021/01/21 11:51:58;;;;;;;0.80;0.80;;;12.40;99.90;;;;;;5009337;28;20214;-70
2021/01/21 11:54:24;;;;;;;1.03;1.00;;;12.30;99.90;;;;;;5009228;28;20222;-71
2021/01/21 11:56:51;;;;;;;1.60;1.00;;;12.30;99.90;;;;;;5009017;28;21092;-71
2021/01/21 11:59:17;;;;;;;0.90;0.90;;;12.30;99.90;;;;;;4995969;28;20644;-72
2021/01/21 12:01:43;;;;;;;3.93;3.70;;;12.30;99.90;;;;;;4995306;28;20241;-72
2021/01/21 12:04:10;;;;;;;1.50;1.20;;;12.30;99.90;;;;;;5000072;28;20308;-71
2021/01/21 12:06:37;;;;;;;0.60;0.60;;;12.20;99.90;;;;;;4994796;28;20226;-71
2021/01/21 12:09:04;;;;;;;0.80;0.80;;;12.20;99.90;;;;;;4995590;28;20285;-71
2021/01/21 12:11:31;;;;;;;1.17;1.10;;;12.20;99.90;;;;;;5005028;28;20198;-71
2021/01/21 12:13:57;;;;;;;1.50;1.00;;;12.20;99.90;;;;;;4999679;28;20302;-71
2021/01/21 12:16:24;;;;;;;5.87;0.80;;;12.20;99.90;;;;;;4994641;28;20206;-71
2021/01/21 12:18:50;;;;;;;1.27;0.90;;;12.20;99.90;;;;;;4996214;28;20568;-70
2021/01/21 12:21:18;;;;;;;0.77;0.70;;;12.30;99.90;;;;;;4998011;28;20308;-71
2021/01/21 12:23:45;;;;;;;0.60;0.60;;;12.20;99.90;;;;;;4994549;28;20664;-71
2021/01/21 12:26:11;;;;;;;2.27;0.73;;;12.10;99.90;;;;;;5004462;28;20312;-70
2021/01/21 12:28:38;;;;;;;1.23;0.87;;;12.00;99.90;;;;;;4998201;28;20201;-71
2021/01/21 12:31:05;;;;;;;0.70;0.70;;;12.10;99.90;;;;;;4996928;28;20682;-71
2021/01/21 12:33:32;;;;;;;0.83;0.83;;;12.10;99.90;;;;;;4997041;28;20228;-71
2021/01/21 12:35:59;;;;;;;0.80;0.73;;;12.10;99.90;;;;;;4999348;28;20240;-71
2021/01/21 12:38:26;;;;;;;5.00;4.50;;;12.10;99.90;;;;;;4997303;28;20293;-71
2021/01/21 12:40:53;;;;;;;2.50;2.00;;;12.20;99.90;;;;;;4997124;28;20210;-71
2021/01/21 12:43:20;;;;;;;0.80;0.60;;;12.20;99.90;;;;;;4999564;28;20814;-71
2021/01/21 12:45:46;;;;;;;1.80;0.70;;;12.20;99.90;;;;;;4993618;28;20277;-71
2021/01/21 12:48:13;;;;;;;1.03;0.93;;;12.20;99.90;;;;;;4995694;28;20276;-71
2021/01/21 12:50:40;;;;;;;0.90;0.90;;;12.20;99.90;;;;;;4996930;28;20696;-71
2021/01/21 12:53:07;;;;;;;1.93;1.00;;;12.20;99.90;;;;;;4999499;28;20241;-71
2021/01/21 12:55:33;;;;;;;1.23;0.70;;;12.20;99.90;;;;;;4996800;28;20198;-71
2021/01/21 12:58:01;;;;;;;3.07;1.97;;;12.20;99.90;;;;;;5002734;28;20293;-71
2021/01/21 13:00:27;;;;;;;3.07;1.87;;;12.20;99.90;;;;;;5003921;28;20229;-71
2021/01/21 13:02:53;;;;;;;3.97;3.67;;;12.20;99.90;;;;;;5003824;28;20616;-72